Reyes Airport

Airport
ICAO code: 
SLRY
IATA Code: 
REY
Summary
ICAO Region: 
CARSAM
Territory: 
Location: 
Reyes, El Beni
Serving: 
Reyes
Elevation: 
935 ft
Coordinates: 
Aerial View: 
14° 18' 15.84" S, 67° 21' 12.24" W
Metar
Observation
SLRY 181900Z 34004KT 9999 FEW015 BKN200 27/23 Q1011
Station
Reyes
Date/Time
2022-01-18 19:00:00
Wind direction
340°
Wind speed
04 kts
Lowest cloud amount
few clouds
Temperature
27°C
Dew point
23°C
Humidity
78%
QNH
1011 hPa
Weather condition
n/a

Airport serving Reyes, the capital of the José Ballivián Province in Bolivia's Beni Department. The runway is 2 km west of the town.

Climatology

Equatorial climate (Köppen climate classification Af).

Runways

Designator Length Width Surface Rops
18/36 1500 0 UNK No/No
Airport map: 
Aerial View: 

SKYbrary Partners:

Safety knowledge contributed by: